Time;durP1;ratioP1;P1;durP2;ratioP2;P2;SDS_P1;SDS_P2;PMS_P1;PMS_P2;Temp;Humidity;BMP_temperature;BMP_pressure;BME280_temperature;BME280_humidity;BME280_pressure;Samples;Min_cycle;Max_cycle;Signal;HPM_P1;HPM_P2
2021/06/18 00:00:27;;;;;;;;;;;26.50;94.80;;;;;;5107011;28;20115;-59
2021/06/18 00:02:54;;;;;;;;;;;26.50;95.10;;;;;;5107015;28;19915;-53
2021/06/18 00:05:21;;;;;;;;;;;26.50;94.90;;;;;;5107168;28;19957;-53
2021/06/18 00:07:48;;;;;;;;;;;26.50;95.20;;;;;;5106941;28;19912;-51
2021/06/18 00:10:16;;;;;;;;;;;26.50;94.90;;;;;;5106806;28;19978;-54
2021/06/18 00:12:42;;;;;;;;;;;26.50;94.80;;;;;;5106676;28;19908;-54
2021/06/18 00:15:15;;;;;;;;;;;26.50;94.80;;;;;;5107094;28;20217;-51
2021/06/18 00:17:41;;;;;;;;;;;26.60;94.70;;;;;;5105437;28;19912;-55
2021/06/18 00:20:08;;;;;;;;;;;26.60;94.60;;;;;;5107068;28;19920;-55
2021/06/18 00:22:35;;;;;;;;;;;26.60;94.60;;;;;;5106689;28;19939;-59
2021/06/18 00:25:01;;;;;;;;;;;26.60;94.60;;;;;;5106444;28;19921;-56
2021/06/18 00:27:27;;;;;;;;;;;26.60;94.60;;;;;;5106568;28;19904;-54
2021/06/18 00:29:53;;;;;;;;;;;26.60;94.60;;;;;;5105592;28;20210;-52
2021/06/18 00:32:20;;;;;;;;;;;26.60;94.50;;;;;;5106461;28;19950;-54
2021/06/18 00:34:46;;;;;;;;;;;26.60;94.60;;;;;;5106602;28;20078;-51
2021/06/18 00:37:12;;;;;;;;;;;26.60;94.60;;;;;;5106423;28;19908;-51
2021/06/18 00:39:40;;;;;;;;;;;26.70;94.60;;;;;;5106541;28;19939;-49
2021/06/18 00:42:07;;;;;;;;;;;26.60;94.50;;;;;;5106169;28;19936;-54
2021/06/18 00:44:33;;;;;;;;;;;26.60;94.50;;;;;;5106419;28;19916;-51
2021/06/18 00:47:00;;;;;;;;;;;26.60;94.40;;;;;;5105974;28;19911;-52
2021/06/18 00:49:26;;;;;;;;;;;26.60;94.40;;;;;;5105911;28;19912;-52
2021/06/18 00:51:53;;;;;;;;;;;26.70;94.30;;;;;;5106241;28;20233;-54
2021/06/18 00:54:29;;;;;;;;;;;26.70;94.20;;;;;;5106235;28;20092;-54
2021/06/18 00:56:57;;;;;;;;;;;26.70;94.20;;;;;;5104383;28;19914;-58
2021/06/18 00:59:23;;;;;;;;;;;26.70;94.20;;;;;;5103275;28;19912;-55
2021/06/18 01:01:50;;;;;;;;;;;26.70;94.20;;;;;;5106017;28;19904;-55
2021/06/18 01:04:16;;;;;;;;;;;26.60;94.10;;;;;;5104864;28;19916;-57
2021/06/18 01:06:43;;;;;;;;;;;26.60;94.10;;;;;;5105861;28;20220;-54
2021/06/18 01:09:11;;;;;;;;;;;26.60;94.10;;;;;;5106439;28;20125;-58
2021/06/18 01:11:58;;;;;;;;;;;26.60;94.10;;;;;;5103863;28;19911;-54
2021/06/18 01:14:33;;;;;;;;;;;26.60;94.10;;;;;;5105756;28;20065;-57
2021/06/18 01:17:18;;;;;;;;;;;26.60;94.10;;;;;;5105731;28;19971;-56
2021/06/18 01:20:00;;;;;;;;;;;26.50;94.00;;;;;;5104504;28;19912;-55
2021/06/18 01:22:28;;;;;;;;;;;26.60;94.00;;;;;;5105662;28;19950;-58
2021/06/18 01:25:04;;;;;;;;;;;26.60;94.00;;;;;;5105256;28;19920;-56
2021/06/18 01:27:33;;;;;;;;;;;26.50;93.90;;;;;;5105462;28;19910;-57
2021/06/18 01:30:16;;;;;;;;;;;26.50;93.90;;;;;;5105799;28;20110;-53
2021/06/18 01:33:01;;;;;;;;;;;26.50;93.90;;;;;;5105300;28;19967;-56
2021/06/18 01:35:48;;;;;;;;;;;26.50;93.90;;;;;;5105841;28;19912;-54
2021/06/18 01:38:16;;;;;;;;;;;26.50;93.90;;;;;;5105199;28;19945;-56
2021/06/18 01:40:43;;;;;;;;;;;26.50;93.80;;;;;;5105157;28;19974;-56
2021/06/18 01:43:11;;;;;;;;;;;26.40;93.80;;;;;;5104975;28;19904;-55
2021/06/18 01:45:37;;;;;;;;;;;26.40;93.80;;;;;;5105004;28;19923;-59
2021/06/18 01:48:05;;;;;;;;;;;26.40;93.70;;;;;;5105027;28;19912;-56
2021/06/18 01:50:32;;;;;;;;;;;26.40;93.70;;;;;;5105341;28;19915;-55
2021/06/18 01:53:18;;;;;;;;;;;26.40;93.70;;;;;;5104928;28;19908;-54
2021/06/18 01:55:46;;;;;;;;;;;26.40;93.60;;;;;;5104412;28;20101;-57
2021/06/18 01:58:13;;;;;;;;;;;26.30;93.50;;;;;;5104697;28;19904;-56
2021/06/18 02:00:46;;;;;;;;;;;26.30;93.50;;;;;;5104817;28;19904;-57
2021/06/18 02:03:15;;;;;;;;;;;26.30;93.40;;;;;;5104664;28;19904;-55
2021/06/18 02:05:41;;;;;;;;;;;26.30;93.50;;;;;;5104724;28;19908;-55
2021/06/18 02:08:08;;;;;;;;;;;26.30;93.50;;;;;;5104673;28;19910;-55
2021/06/18 02:10:35;;;;;;;;;;;26.30;93.40;;;;;;5104427;28;20098;-57
2021/06/18 02:13:07;;;;;;;;;;;26.30;93.40;;;;;;5104666;28;19911;-56
2021/06/18 02:15:35;;;;;;;;;;;26.30;93.50;;;;;;5104700;28;19919;-54
2021/06/18 02:18:02;;;;;;;;;;;26.20;93.50;;;;;;5104619;28;19912;-56
2021/06/18 02:20:28;;;;;;;;;;;26.10;93.50;;;;;;5105078;28;19920;-55
2021/06/18 02:22:55;;;;;;;;;;;26.10;93.50;;;;;;5104627;28;19908;-57
2021/06/18 02:25:22;;;;;;;;;;;26.10;93.60;;;;;;5104265;28;19950;-58
2021/06/18 02:27:49;;;;;;;;;;;26.10;93.50;;;;;;5103330;28;19920;-55
2021/06/18 02:30:15;;;;;;;;;;;26.10;93.60;;;;;;5104398;28;20143;-55
2021/06/18 02:32:43;;;;;;;;;;;26.10;93.70;;;;;;5104630;28;19911;-54
2021/06/18 02:35:09;;;;;;;;;;;26.10;93.70;;;;;;5104815;28;19987;-58
2021/06/18 02:37:36;;;;;;;;;;;26.00;93.60;;;;;;5104473;28;19904;-59
2021/06/18 02:40:04;;;;;;;;;;;26.00;93.60;;;;;;5104654;28;19912;-53
2021/06/18 02:42:30;;;;;;;;;;;26.00;93.60;;;;;;5104310;28;19946;-54
2021/06/18 02:44:57;;;;;;;;;;;26.00;93.70;;;;;;5104581;28;19927;-53
2021/06/18 02:47:29;;;;;;;;;;;26.00;93.90;;;;;;5104148;28;19936;-57
2021/06/18 02:50:00;;;;;;;;;;;26.00;93.70;;;;;;5104684;28;19984;-59
2021/06/18 02:52:34;;;;;;;;;;;26.00;93.90;;;;;;5104068;28;20192;-54
2021/06/18 02:55:12;;;;;;;;;;;26.00;93.80;;;;;;5104620;28;19912;-53
2021/06/18 02:57:47;;;;;;;;;;;25.90;93.80;;;;;;5104528;28;19904;-54
2021/06/18 03:00:14;;;;;;;;;;;25.90;93.70;;;;;;5104645;28;19912;-56
2021/06/18 03:02:46;;;;;;;;;;;25.90;93.70;;;;;;5104379;28;19904;-56
2021/06/18 03:05:13;;;;;;;;;;;25.90;93.80;;;;;;5104356;28;19987;-54
2021/06/18 03:07:43;;;;;;;;;;;25.90;93.80;;;;;;5104137;28;20193;-57
2021/06/18 03:10:11;;;;;;;;;;;25.90;93.90;;;;;;5104496;28;19983;-62
2021/06/18 03:12:41;;;;;;;;;;;25.90;93.90;;;;;;5103971;28;19910;-55
2021/06/18 03:15:08;;;;;;;;;;;25.90;93.80;;;;;;5103028;28;20120;-56
2021/06/18 03:17:36;;;;;;;;;;;25.80;93.70;;;;;;5104063;28;19975;-56
2021/06/18 03:20:07;;;;;;;;;;;25.80;93.80;;;;;;5102978;28;19912;-59
2021/06/18 03:22:35;;;;;;;;;;;25.80;93.80;;;;;;5102814;28;19940;-55
2021/06/18 03:25:02;;;;;;;;;;;25.80;93.80;;;;;;5103705;28;19927;-56
2021/06/18 03:27:30;;;;;;;;;;;25.80;93.80;;;;;;5104357;28;19908;-60
2021/06/18 03:29:56;;;;;;;;;;;25.80;93.80;;;;;;5108092;28;19912;-55
2021/06/18 03:32:23;;;;;;;;;;;25.80;93.90;;;;;;5106433;28;19908;-55
2021/06/18 03:34:49;;;;;;;;;;;25.80;93.90;;;;;;5108042;28;20018;-54
2021/06/18 03:37:16;;;;;;;;;;;25.80;93.90;;;;;;5107327;28;19908;-59
2021/06/18 03:39:43;;;;;;;;;;;25.80;93.90;;;;;;5107829;28;19983;-58
2021/06/18 03:42:10;;;;;;;;;;;25.80;93.90;;;;;;5107130;28;19908;-58
2021/06/18 03:44:36;;;;;;;;;;;25.80;94.00;;;;;;5107695;28;19912;-57
2021/06/18 03:47:05;;;;;;;;;;;25.80;94.00;;;;;;5107452;28;19914;-59
2021/06/18 03:49:31;;;;;;;;;;;25.80;94.00;;;;;;5107528;28;19951;-58
2021/06/18 03:51:57;;;;;;;;;;;25.80;94.00;;;;;;5107276;28;19916;-59
2021/06/18 03:54:27;;;;;;;;;;;25.80;94.00;;;;;;5107248;28;19935;-62
2021/06/18 03:56:56;;;;;;;;;;;25.80;94.00;;;;;;5106991;28;19908;-57
2021/06/18 03:59:23;;;;;;;;;;;25.80;94.00;;;;;;5107379;28;19908;-59
2021/06/18 04:01:53;;;;;;;;;;;25.80;94.00;;;;;;5106584;28;19917;-65
2021/06/18 04:04:21;;;;;;;;;;;25.80;94.10;;;;;;5106796;28;19912;-58
2021/06/18 04:06:47;;;;;;;;;;;25.80;94.10;;;;;;5107028;28;19931;-58
2021/06/18 04:09:15;;;;;;;;;;;25.80;94.10;;;;;;5106837;28;19908;-57
2021/06/18 04:11:41;;;;;;;;;;;25.80;94.10;;;;;;5106664;28;19908;-59
2021/06/18 04:14:11;;;;;;;;;;;25.80;94.10;;;;;;5106760;28;19908;-56
2021/06/18 04:16:40;;;;;;;;;;;25.80;94.20;;;;;;5106959;28;19908;-57
2021/06/18 04:19:10;;;;;;;;;;;25.70;94.20;;;;;;5106492;28;19909;-57
2021/06/18 04:21:41;;;;;;;;;;;25.70;94.20;;;;;;5106715;28;19975;-61
2021/06/18 04:24:07;;;;;;;;;;;25.70;94.10;;;;;;5106371;28;19916;-57
2021/06/18 04:26:34;;;;;;;;;;;25.70;94.20;;;;;;5106681;28;19904;-58
2021/06/18 04:29:00;;;;;;;;;;;25.70;94.30;;;;;;5106761;28;19939;-60
2021/06/18 04:31:26;;;;;;;;;;;25.70;94.20;;;;;;5106375;28;19904;-57
2021/06/18 04:33:52;;;;;;;;;;;25.70;94.20;;;;;;5106231;28;19912;-56
2021/06/18 04:36:19;;;;;;;;;;;25.70;94.20;;;;;;5106442;28;19904;-57
2021/06/18 04:38:46;;;;;;;;;;;25.70;94.20;;;;;;5106108;28;19922;-58
2021/06/18 04:41:12;;;;;;;;;;;25.70;94.30;;;;;;5106219;28;20192;-57
2021/06/18 04:43:39;;;;;;;;;;;25.70;94.20;;;;;;5106461;28;19940;-58
2021/06/18 04:46:05;;;;;;;;;;;25.70;94.20;;;;;;5106030;28;19908;-58
2021/06/18 04:48:31;;;;;;;;;;;25.70;94.20;;;;;;5105893;28;19924;-56
2021/06/18 04:50:57;;;;;;;;;;;25.70;94.20;;;;;;5106205;28;19911;-58
2021/06/18 04:53:24;;;;;;;;;;;25.70;94.10;;;;;;5106026;28;19975;-55
2021/06/18 04:55:50;;;;;;;;;;;25.70;94.20;;;;;;5106025;28;19931;-57
2021/06/18 04:58:16;;;;;;;;;;;25.70;94.20;;;;;;5105913;28;19957;-57
2021/06/18 05:00:42;;;;;;;;;;;25.60;94.20;;;;;;5105982;28;19944;-60
2021/06/18 05:03:10;;;;;;;;;;;25.60;94.20;;;;;;5105364;28;19961;-60
2021/06/18 05:05:36;;;;;;;;;;;25.60;94.20;;;;;;5105851;28;19991;-60
2021/06/18 05:08:04;;;;;;;;;;;25.60;94.20;;;;;;5105482;28;20338;-61
2021/06/18 05:10:30;;;;;;;;;;;25.60;94.20;;;;;;5105551;28;19923;-58
2021/06/18 05:12:57;;;;;;;;;;;25.60;94.20;;;;;;5105671;28;19911;-58
2021/06/18 05:15:23;;;;;;;;;;;25.50;94.30;;;;;;5106089;28;20127;-58
2021/06/18 05:17:49;;;;;;;;;;;25.60;94.30;;;;;;5105118;28;20097;-62
2021/06/18 05:20:16;;;;;;;;;;;25.50;94.20;;;;;;5105953;28;19912;-58
2021/06/18 05:22:42;;;;;;;;;;;25.50;94.30;;;;;;5105562;28;19904;-57
2021/06/18 05:25:09;;;;;;;;;;;25.50;94.30;;;;;;5105338;28;19987;-56
2021/06/18 05:27:35;;;;;;;;;;;25.50;94.40;;;;;;5105409;28;19945;-62
2021/06/18 05:30:01;;;;;;;;;;;25.50;94.40;;;;;;5105820;28;19912;-58
2021/06/18 05:32:27;;;;;;;;;;;25.50;94.40;;;;;;5104810;28;19904;-60
2021/06/18 05:34:53;;;;;;;;;;;25.50;94.30;;;;;;5105666;28;19912;-58
2021/06/18 05:37:19;;;;;;;;;;;25.50;94.40;;;;;;5105261;28;19904;-57
2021/06/18 05:39:46;;;;;;;;;;;25.50;94.30;;;;;;5105006;28;19957;-57
2021/06/18 05:42:12;;;;;;;;;;;25.50;94.30;;;;;;5104592;28;19912;-58
2021/06/18 05:44:38;;;;;;;;;;;25.50;94.40;;;;;;5104517;28;19923;-59
2021/06/18 05:47:05;;;;;;;;;;;25.50;94.30;;;;;;5104079;28;19908;-58
2021/06/18 05:49:31;;;;;;;;;;;25.50;94.30;;;;;;5104691;28;19912;-58
2021/06/18 05:51:58;;;;;;;;;;;25.50;94.30;;;;;;5102648;28;19941;-58
2021/06/18 05:54:25;;;;;;;;;;;25.50;94.50;;;;;;5105182;28;19919;-58
2021/06/18 05:56:52;;;;;;;;;;;25.50;94.30;;;;;;5104848;28;20074;-59
2021/06/18 05:59:21;;;;;;;;;;;25.50;94.30;;;;;;5105136;28;19912;-58
2021/06/18 06:01:47;;;;;;;;;;;25.50;94.30;;;;;;5104949;28;19904;-58
2021/06/18 06:04:13;;;;;;;;;;;25.50;94.30;;;;;;5104819;28;19912;-62
2021/06/18 06:06:40;;;;;;;;;;;25.40;94.30;;;;;;5104838;28;19904;-58
2021/06/18 06:09:06;;;;;;;;;;;25.40;94.30;;;;;;5104981;28;19957;-58
2021/06/18 06:11:34;;;;;;;;;;;25.40;94.40;;;;;;5104632;28;19912;-58
2021/06/18 06:14:02;;;;;;;;;;;25.40;94.40;;;;;;5104794;28;20100;-58
2021/06/18 06:16:29;;;;;;;;;;;25.50;94.40;;;;;;5104617;28;19912;-58
2021/06/18 06:18:56;;;;;;;;;;;25.40;94.40;;;;;;5104657;28;20082;-58
2021/06/18 06:21:22;;;;;;;;;;;25.40;94.40;;;;;;5104610;28;19904;-60
2021/06/18 06:23:49;;;;;;;;;;;25.40;94.50;;;;;;5104560;28;19911;-64
2021/06/18 06:26:16;;;;;;;;;;;25.40;94.50;;;;;;5103262;28;19912;-58
2021/06/18 06:28:42;;;;;;;;;;;25.40;94.50;;;;;;5104647;28;20112;-62
2021/06/18 06:31:08;;;;;;;;;;;25.40;94.50;;;;;;5104548;28;19946;-57
2021/06/18 06:33:35;;;;;;;;;;;25.40;94.50;;;;;;5104423;28;19912;-64
2021/06/18 06:36:01;;;;;;;;;;;25.40;94.60;;;;;;5104563;28;19904;-58
2021/06/18 06:38:28;;;;;;;;;;;25.40;94.60;;;;;;5104568;28;19908;-60
2021/06/18 06:40:54;;;;;;;;;;;25.40;94.60;;;;;;5104357;28;19904;-62
2021/06/18 06:43:20;;;;;;;;;;;25.40;94.60;;;;;;5104314;28;20246;-58
2021/06/18 06:45:47;;;;;;;;;;;25.40;94.60;;;;;;5104321;28;19908;-62
2021/06/18 06:48:13;;;;;;;;;;;25.40;94.60;;;;;;5104158;28;19940;-62
2021/06/18 06:50:40;;;;;;;;;;;25.40;94.60;;;;;;5104347;28;20189;-59
2021/06/18 06:53:07;;;;;;;;;;;25.40;94.70;;;;;;5104364;28;20014;-61
2021/06/18 06:55:37;;;;;;;;;;;25.40;94.70;;;;;;5104626;28;20231;-59
2021/06/18 06:58:06;;;;;;;;;;;25.40;94.60;;;;;;5104376;28;19904;-61
2021/06/18 07:00:33;;;;;;;;;;;25.40;94.60;;;;;;5104727;28;19912;-58
2021/06/18 07:02:59;;;;;;;;;;;25.40;94.60;;;;;;5107091;28;20189;-65
2021/06/18 07:05:25;;;;;;;;;;;25.40;94.60;;;;;;5108624;28;19991;-60
2021/06/18 07:07:51;;;;;;;;;;;25.40;94.60;;;;;;5108265;28;19904;-62
2021/06/18 07:10:17;;;;;;;;;;;25.40;94.60;;;;;;5108411;28;19912;-59
2021/06/18 07:12:44;;;;;;;;;;;25.40;94.60;;;;;;5108084;28;19904;-62
2021/06/18 07:15:10;;;;;;;;;;;25.40;94.50;;;;;;5108563;28;20119;-62
2021/06/18 07:17:37;;;;;;;;;;;25.40;94.50;;;;;;5107928;28;19911;-60
2021/06/18 07:20:03;;;;;;;;;;;25.40;94.50;;;;;;5108317;28;20211;-61
2021/06/18 07:22:32;;;;;;;;;;;25.40;94.60;;;;;;5107977;28;19904;-57
2021/06/18 07:24:59;;;;;;;;;;;25.40;94.50;;;;;;5107638;28;19991;-58
2021/06/18 07:27:26;;;;;;;;;;;25.50;94.50;;;;;;5108111;28;19938;-59
2021/06/18 07:29:53;;;;;;;;;;;25.40;94.50;;;;;;5107670;28;19912;-61
2021/06/18 07:32:20;;;;;;;;;;;25.40;94.50;;;;;;5107672;28;20157;-60
2021/06/18 07:34:47;;;;;;;;;;;25.40;94.60;;;;;;5108025;28;19915;-59
2021/06/18 07:37:14;;;;;;;;;;;25.40;94.60;;;;;;5107576;28;19930;-58
2021/06/18 07:39:40;;;;;;;;;;;25.40;94.60;;;;;;5107908;28;19908;-58
2021/06/18 07:42:06;;;;;;;;;;;25.40;94.70;;;;;;5107304;28;19979;-59
2021/06/18 07:44:37;;;;;;;;;;;25.30;94.70;;;;;;5107693;28;19951;-60
2021/06/18 07:47:07;;;;;;;;;;;25.40;94.70;;;;;;5107734;28;19915;-61
2021/06/18 07:49:33;;;;;;;;;;;25.30;94.60;;;;;;5107615;28;20140;-60
2021/06/18 07:52:00;;;;;;;;;;;25.40;94.70;;;;;;5107621;28;20188;-61
2021/06/18 07:54:26;;;;;;;;;;;25.40;94.70;;;;;;5107554;28;19943;-62
2021/06/18 07:56:53;;;;;;;;;;;25.40;94.70;;;;;;5107172;28;19942;-61
2021/06/18 07:59:19;;;;;;;;;;;25.30;94.80;;;;;;5107466;28;20249;-61
2021/06/18 08:01:46;;;;;;;;;;;25.30;94.80;;;;;;5107292;28;19953;-61
2021/06/18 08:04:12;;;;;;;;;;;25.30;94.80;;;;;;5107075;28;19908;-59
2021/06/18 08:06:38;;;;;;;;;;;25.40;94.80;;;;;;5107021;28;19970;-61
2021/06/18 08:09:05;;;;;;;;;;;25.30;94.80;;;;;;5107235;28;20189;-60
2021/06/18 08:11:31;;;;;;;;;;;25.30;94.80;;;;;;5106897;28;19915;-58
2021/06/18 08:13:57;;;;;;;;;;;25.30;94.80;;;;;;5106283;28;19940;-60
2021/06/18 08:16:24;;;;;;;;;;;25.30;94.80;;;;;;5106995;28;19908;-59
2021/06/18 08:18:50;;;;;;;;;;;25.40;94.80;;;;;;5106861;28;20092;-62
2021/06/18 08:21:16;;;;;;;;;;;25.30;94.80;;;;;;5106866;28;19908;-58
2021/06/18 08:23:43;;;;;;;;;;;25.30;94.80;;;;;;5106849;28;19908;-57
2021/06/18 08:26:09;;;;;;;;;;;25.30;94.80;;;;;;5106319;28;19916;-61
2021/06/18 08:28:35;;;;;;;;;;;25.30;94.80;;;;;;5106836;28;19918;-58
2021/06/18 08:31:04;;;;;;;;;;;25.30;94.80;;;;;;5106608;28;19935;-61
2021/06/18 08:33:33;;;;;;;;;;;25.30;94.80;;;;;;5106445;28;19904;-60
2021/06/18 08:35:59;;;;;;;;;;;25.30;94.80;;;;;;5106461;28;19910;-61
2021/06/18 08:38:25;;;;;;;;;;;25.30;94.80;;;;;;5106583;28;19908;-59
2021/06/18 08:40:51;;;;;;;;;;;25.30;94.80;;;;;;5106282;28;19908;-57
2021/06/18 08:43:18;;;;;;;;;;;25.30;94.90;;;;;;5106296;28;19912;-62
2021/06/18 08:45:44;;;;;;;;;;;25.30;94.90;;;;;;5106262;28;19908;-58
2021/06/18 08:48:10;;;;;;;;;;;25.30;94.90;;;;;;5106054;28;19939;-61
2021/06/18 08:50:37;;;;;;;;;;;25.30;95.00;;;;;;5106340;28;19904;-56
2021/06/18 08:53:05;;;;;;;;;;;25.30;95.00;;;;;;5106168;28;19911;-60
2021/06/18 08:55:32;;;;;;;;;;;25.30;95.10;;;;;;5106423;28;19916;-60
2021/06/18 08:57:59;;;;;;;;;;;25.30;95.10;;;;;;5106148;28;19919;-59
2021/06/18 09:00:26;;;;;;;;;;;25.30;95.10;;;;;;5105963;28;19912;-57
2021/06/18 09:02:52;;;;;;;;;;;25.30;95.20;;;;;;5105906;28;20189;-61
2021/06/18 09:05:21;;;;;;;;;;;25.30;95.20;;;;;;5106283;28;19916;-58
2021/06/18 09:07:48;;;;;;;;;;;25.30;95.20;;;;;;5105858;28;19905;-58
2021/06/18 09:10:39;;;;;;;;;;;25.30;95.20;;;;;;5106187;28;19912;-62
2021/06/18 09:13:05;;;;;;;;;;;25.30;95.20;;;;;;5100738;28;19910;-62
2021/06/18 09:15:32;;;;;;;;;;;25.30;95.10;;;;;;5106156;28;19920;-58
2021/06/18 09:18:18;;;;;;;;;;;25.30;95.10;;;;;;5106093;28;19908;-58
2021/06/18 09:20:44;;;;;;;;;;;25.30;95.20;;;;;;5105563;28;19935;-58
2021/06/18 09:23:20;;;;;;;;;;;25.30;95.30;;;;;;5105509;28;19904;-57
2021/06/18 09:25:46;;;;;;;;;;;25.30;95.30;;;;;;5104605;28;19921;-60
2021/06/18 09:28:13;;;;;;;;;;;25.30;95.30;;;;;;5105283;28;19904;-59
2021/06/18 09:30:39;;;;;;;;;;;25.30;95.20;;;;;;5105471;28;19904;-60
2021/06/18 09:33:08;;;;;;;;;;;25.30;95.30;;;;;;5105274;28;19923;-61
2021/06/18 09:35:35;;;;;;;;;;;25.30;95.20;;;;;;5105721;28;20234;-59
2021/06/18 09:38:03;;;;;;;;;;;25.30;95.20;;;;;;5105564;28;19931;-61
2021/06/18 09:40:29;;;;;;;;;;;25.30;95.20;;;;;;5105820;28;20189;-58
2021/06/18 09:43:16;;;;;;;;;;;25.30;95.30;;;;;;5105057;28;19973;-61
2021/06/18 09:45:44;;;;;;;;;;;25.30;95.30;;;;;;5105054;28;19916;-57
2021/06/18 09:48:15;;;;;;;;;;;25.30;95.40;;;;;;5104894;28;19904;-58
2021/06/18 09:50:45;;;;;;;;;;;25.30;95.40;;;;;;5104992;28;20097;-58
2021/06/18 09:53:16;;;;;;;;;;;25.30;95.40;;;;;;5104939;28;19911;-59
2021/06/18 09:55:43;;;;;;;;;;;25.30;95.40;;;;;;5104908;28;19910;-59
2021/06/18 09:58:10;;;;;;;;;;;25.30;95.40;;;;;;5104859;28;19905;-59
2021/06/18 10:00:37;;;;;;;;;;;25.30;95.40;;;;;;5104880;28;19912;-57
2021/06/18 10:03:03;;;;;;;;;;;25.30;95.40;;;;;;5104723;28;19910;-58
2021/06/18 10:05:36;;;;;;;;;;;25.30;95.40;;;;;;5105166;28;20223;-61
2021/06/18 10:08:03;;;;;;;;;;;25.30;95.30;;;;;;5104881;28;19904;-60
2021/06/18 10:10:34;;;;;;;;;;;25.30;95.30;;;;;;5105149;28;19919;-62
2021/06/18 10:13:01;;;;;;;;;;;25.30;95.20;;;;;;5104678;28;19926;-58
2021/06/18 10:15:29;;;;;;;;;;;25.30;95.20;;;;;;5105192;28;20236;-58
2021/06/18 10:17:57;;;;;;;;;;;25.30;95.20;;;;;;5104657;28;20097;-61
2021/06/18 10:20:24;;;;;;;;;;;25.30;95.20;;;;;;5105175;28;19944;-58
2021/06/18 10:23:06;;;;;;;;;;;25.30;95.20;;;;;;5104618;28;19911;-59
2021/06/18 10:25:42;;;;;;;;;;;25.30;95.20;;;;;;5104542;28;19920;-57
2021/06/18 10:28:09;;;;;;;;;;;25.30;95.20;;;;;;5104581;28;19908;-58
2021/06/18 10:30:36;;;;;;;;;;;25.30;95.20;;;;;;5105015;28;19912;-61
2021/06/18 10:33:22;;;;;;;;;;;25.30;95.10;;;;;;5104490;28;20193;-58
2021/06/18 10:35:52;;;;;;;;;;;25.30;95.40;;;;;;5104350;28;19946;-62
2021/06/18 10:38:26;;;;;;;;;;;25.30;95.30;;;;;;5104147;28;19904;-64
2021/06/18 10:40:52;;;;;;;;;;;25.30;95.10;;;;;;5104275;28;19932;-61
2021/06/18 10:43:19;;;;;;;;;;;25.30;95.10;;;;;;5104272;28;20078;-59
2021/06/18 10:46:01;;;;;;;;;;;25.30;95.10;;;;;;5104310;28;20145;-61
2021/06/18 10:48:46;;;;;;;;;;;25.30;95.10;;;;;;5104583;28;19912;-62
2021/06/18 10:51:27;;;;;;;;;;;25.30;95.10;;;;;;5104327;28;20074;-58
2021/06/18 10:54:01;;;;;;;;;;;25.30;95.10;;;;;;5104572;28;19934;-58
2021/06/18 10:56:46;;;;;;;;;;;25.30;95.10;;;;;;5104254;28;20161;-65
2021/06/18 10:59:27;;;;;;;;;;;25.30;95.10;;;;;;5104395;28;19912;-58
2021/06/18 11:01:53;;;;;;;;;;;25.30;95.10;;;;;;5104396;28;19904;-59
2021/06/18 11:04:38;;;;;;;;;;;25.30;95.10;;;;;;5104499;28;19939;-61
2021/06/18 11:07:21;;;;;;;;;;;25.30;95.10;;;;;;5104053;28;20188;-61
2021/06/18 11:09:48;;;;;;;;;;;25.30;95.10;;;;;;5104460;28;19912;-61
2021/06/18 11:12:23;;;;;;;;;;;25.30;95.10;;;;;;5104140;28;19910;-57
2021/06/18 11:14:49;;;;;;;;;;;25.30;95.10;;;;;;5104631;28;19912;-58
2021/06/18 11:17:34;;;;;;;;;;;25.30;95.10;;;;;;5104044;28;19949;-61
2021/06/18 11:20:00;;;;;;;;;;;25.30;95.10;;;;;;5104389;28;19919;-59
2021/06/18 11:22:37;;;;;;;;;;;25.30;95.00;;;;;;5104124;28;19912;-61
2021/06/18 11:25:04;;;;;;;;;;;25.40;95.00;;;;;;5103729;28;19920;-55
2021/06/18 11:27:31;;;;;;;;;;;25.40;95.00;;;;;;5104096;28;19904;-59
2021/06/18 11:30:15;;;;;;;;;;;25.50;95.00;;;;;;5103794;28;19966;-59
2021/06/18 11:32:45;;;;;;;;;;;25.50;94.90;;;;;;5103870;28;20074;-62
2021/06/18 11:35:30;;;;;;;;;;;25.70;94.90;;;;;;5103822;28;19957;-64
2021/06/18 11:37:56;;;;;;;;;;;25.80;94.70;;;;;;5103846;28;19912;-60
2021/06/18 11:40:23;;;;;;;;;;;25.90;94.60;;;;;;5104375;28;20172;-63
2021/06/18 11:42:49;;;;;;;;;;;26.30;94.20;;;;;;5103887;28;19911;-58
2021/06/18 11:45:16;;;;;;;;;;;26.50;93.50;;;;;;5104136;28;19923;-59
2021/06/18 11:47:43;;;;;;;;;;;26.50;93.50;;;;;;5103712;28;19904;-62
2021/06/18 11:50:09;;;;;;;;;;;26.80;93.10;;;;;;5107155;28;20192;-59
2021/06/18 11:52:35;;;;;;;;;;;26.90;92.90;;;;;;5107508;28;19904;-62
2021/06/18 11:55:02;;;;;;;;;;;27.30;92.10;;;;;;5107877;28;19912;-56
2021/06/18 11:57:35;;;;;;;;;;;27.10;92.10;;;;;;5107271;28;19904;-60
2021/06/18 12:00:01;;;;;;;;;;;26.90;92.40;;;;;;5107635;28;19931;-63
2021/06/18 12:02:30;;;;;;;;;;;26.80;92.60;;;;;;5107138;28;19904;-62
2021/06/18 12:05:07;;;;;;;;;;;26.60;92.70;;;;;;5107344;28;19916;-58
2021/06/18 12:07:34;;;;;;;;;;;26.60;92.80;;;;;;5107065;28;19911;-61
2021/06/18 12:10:01;;;;;;;;;;;26.50;93.00;;;;;;5107460;28;19912;-62
2021/06/18 12:12:28;;;;;;;;;;;26.40;93.20;;;;;;5106928;28;20188;-60
2021/06/18 12:14:58;;;;;;;;;;;26.40;93.40;;;;;;5107285;28;19912;-62
2021/06/18 12:17:25;;;;;;;;;;;26.40;93.40;;;;;;5107051;28;19911;-58
2021/06/18 12:19:53;;;;;;;;;;;26.30;93.50;;;;;;5107091;28;19918;-61
2021/06/18 12:22:24;;;;;;;;;;;26.30;93.40;;;;;;5106897;28;19908;-58
2021/06/18 12:24:51;;;;;;;;;;;26.30;93.30;;;;;;5106651;28;19920;-57
2021/06/18 12:27:21;;;;;;;;;;;26.20;93.20;;;;;;5106600;28;20188;-58
2021/06/18 12:29:52;;;;;;;;;;;26.20;93.30;;;;;;5107099;28;19934;-62
2021/06/18 12:32:20;;;;;;;;;;;26.20;93.30;;;;;;5106513;28;19927;-59
2021/06/18 12:34:50;;;;;;;;;;;26.20;93.30;;;;;;5106897;28;19920;-60
2021/06/18 12:37:18;;;;;;;;;;;26.10;93.40;;;;;;5106652;28;19910;-61
2021/06/18 12:40:10;;;;;;;;;;;26.10;93.30;;;;;;5106541;28;19944;-56
2021/06/18 12:42:47;;;;;;;;;;;26.10;93.40;;;;;;5090427;28;19908;-62
2021/06/18 12:45:17;;;;;;;;;;;26.10;93.50;;;;;;5106538;28;19957;-59
2021/06/18 12:47:47;;;;;;;;;;;26.10;93.80;;;;;;5106254;28;19969;-59
2021/06/18 12:50:22;;;;;;;;;;;26.10;93.50;;;;;;5106643;28;19918;-58
2021/06/18 12:52:50;;;;;;;;;;;26.10;93.60;;;;;;5106283;28;19905;-62
2021/06/18 12:55:23;;;;;;;;;;;26.10;93.90;;;;;;5106466;28;19912;-61
2021/06/18 12:58:00;;;;;;;;;;;26.10;93.60;;;;;;5105945;28;20189;-63
2021/06/18 13:00:28;;;;;;;;;;;26.10;93.50;;;;;;5106338;28;19919;-62
2021/06/18 13:02:58;;;;;;;;;;;26.10;93.60;;;;;;5105772;28;19908;-61
2021/06/18 13:05:26;;;;;;;;;;;26.10;93.50;;;;;;5106380;28;19969;-61
2021/06/18 13:07:52;;;;;;;;;;;26.10;93.50;;;;;;5105750;28;19904;-61
2021/06/18 13:10:19;;;;;;;;;;;26.10;93.50;;;;;;5106075;28;19935;-61
2021/06/18 13:12:55;;;;;;;;;;;26.10;93.60;;;;;;5105887;28;19976;-60
2021/06/18 13:15:28;;;;;;;;;;;26.10;93.60;;;;;;5105695;28;20204;-60
2021/06/18 13:17:55;;;;;;;;;;;26.10;93.60;;;;;;5105679;28;19911;-61
2021/06/18 13:20:31;;;;;;;;;;;26.10;93.60;;;;;;5106018;28;19923;-61
2021/06/18 13:22:57;;;;;;;;;;;26.10;93.70;;;;;;5105423;28;19911;-60
2021/06/18 13:25:28;;;;;;;;;;;26.00;93.70;;;;;;5105263;28;19966;-62
2021/06/18 13:27:56;;;;;;;;;;;26.00;93.80;;;;;;5105575;28;19908;-59
2021/06/18 13:30:22;;;;;;;;;;;26.00;93.80;;;;;;5105762;28;19916;-61
2021/06/18 13:32:52;;;;;;;;;;;26.00;93.90;;;;;;5105363;28;19931;-58
2021/06/18 13:35:19;;;;;;;;;;;26.00;94.10;;;;;;5105865;28;19908;-59
2021/06/18 13:37:49;;;;;;;;;;;26.00;94.20;;;;;;5104302;28;19908;-59
2021/06/18 13:40:15;;;;;;;;;;;26.00;94.40;;;;;;5105701;28;19979;-62
2021/06/18 13:42:44;;;;;;;;;;;26.00;94.40;;;;;;5105261;28;19908;-62
2021/06/18 13:45:11;;;;;;;;;;;26.00;94.50;;;;;;5105395;28;19913;-57
2021/06/18 13:47:37;;;;;;;;;;;26.00;94.40;;;;;;5105268;28;19908;-58
2021/06/18 13:50:04;;;;;;;;;;;26.00;94.60;;;;;;5105289;28;19912;-59
2021/06/18 13:52:31;;;;;;;;;;;26.00;94.60;;;;;;5104964;28;20218;-61
2021/06/18 13:54:57;;;;;;;;;;;26.10;94.50;;;;;;5105427;28;19981;-60
2021/06/18 13:57:24;;;;;;;;;;;26.00;94.40;;;;;;5105017;28;19915;-60
2021/06/18 13:59:50;;;;;;;;;;;26.00;94.20;;;;;;5104786;28;19915;-59
2021/06/18 14:02:17;;;;;;;;;;;26.10;94.10;;;;;;5104804;28;19982;-57
2021/06/18 14:04:46;;;;;;;;;;;26.10;94.00;;;;;;5104989;28;19919;-57
2021/06/18 14:07:13;;;;;;;;;;;26.10;94.00;;;;;;5104700;28;19935;-61
2021/06/18 14:09:40;;;;;;;;;;;26.10;94.00;;;;;;5105075;28;19909;-62
2021/06/18 14:12:10;;;;;;;;;;;26.10;94.00;;;;;;5104178;28;20156;-58
2021/06/18 14:14:48;;;;;;;;;;;26.10;93.90;;;;;;5104929;28;19914;-64
2021/06/18 14:17:18;;;;;;;;;;;26.20;93.80;;;;;;5104676;28;20189;-57
2021/06/18 14:19:45;;;;;;;;;;;26.20;93.90;;;;;;5104827;28;19908;-61
2021/06/18 14:22:11;;;;;;;;;;;26.20;93.70;;;;;;5104791;28;19908;-58
2021/06/18 14:24:37;;;;;;;;;;;26.20;93.70;;;;;;5104429;28;19926;-56